Time;durP1;ratioP1;P1;durP2;ratioP2;P2;SDS_P1;SDS_P2;PMS_P1;PMS_P2;Temp;Humidity;BMP_temperature;BMP_pressure;BME280_temperature;BME280_humidity;BME280_pressure;Samples;Min_cycle;Max_cycle;Signal;HPM_P1;HPM_P2
2021/10/14 00:01:53;;;;;;;3.75;1.20;;;;;;;20.83;46.96;102574.38;4992816;28;20032;-61
2021/10/14 00:04:18;;;;;;;3.15;1.20;;;;;;;20.83;47.02;102570.88;4992744;28;20479;-61
2021/10/14 00:06:45;;;;;;;3.45;1.42;;;;;;;20.81;47.26;102568.34;4991998;28;20034;-61
2021/10/14 00:09:11;;;;;;;3.03;1.20;;;;;;;20.81;47.06;102575.44;4992643;28;20387;-61
2021/10/14 00:11:36;;;;;;;3.63;1.48;;;;;;;20.79;47.05;102572.03;4993262;28;20482;-61
2021/10/14 00:14:01;;;;;;;3.80;1.40;;;;;;;20.78;47.00;102570.34;4992070;28;20377;-61
2021/10/14 00:16:28;;;;;;;3.70;1.60;;;;;;;20.76;47.01;102567.78;4992603;28;20038;-61
2021/10/14 00:18:53;;;;;;;3.55;1.30;;;;;;;20.75;47.09;102565.25;4992667;28;20070;-61
2021/10/14 00:21:18;;;;;;;3.53;1.23;;;;;;;20.75;47.11;102563.44;4991743;28;20430;-62
2021/10/14 00:23:44;;;;;;;3.22;1.10;;;;;;;20.75;47.28;102570.53;4992780;28;20023;-61
2021/10/14 00:26:09;;;;;;;3.38;1.30;;;;;;;20.73;47.09;102562.69;4992367;28;20035;-61
2021/10/14 00:28:34;;;;;;;3.53;1.35;;;;;;;20.73;47.10;102561.81;4991812;28;20046;-59
2021/10/14 00:30:59;;;;;;;4.03;1.40;;;;;;;20.71;47.18;102555.78;4992504;28;20037;-61
2021/10/14 00:33:31;;;;;;;2.90;1.20;;;;;;;20.69;47.25;102550.59;4992727;28;20069;-62
2021/10/14 00:35:56;;;;;;;3.03;1.35;;;;;;;20.69;47.19;102547.94;4991504;28;20053;-61
2021/10/14 00:38:21;;;;;;;3.00;1.40;;;;;;;20.68;47.07;102545.38;4992833;28;20486;-61
2021/10/14 00:40:47;;;;;;;3.27;1.43;;;;;;;20.67;47.30;102546.34;4992467;28;20176;-61
2021/10/14 00:43:13;;;;;;;2.90;1.20;;;;;;;20.66;47.34;102550.78;4991255;28;20280;-61
2021/10/14 00:45:39;;;;;;;4.57;1.87;;;;;;;20.63;47.40;102549.16;4992236;28;20496;-61
2021/10/14 00:48:04;;;;;;;3.20;1.35;;;;;;;20.63;47.47;102543.00;4992164;28;20268;-61
2021/10/14 00:50:33;;;;;;;2.60;1.40;;;;;;;20.61;47.35;102543.09;4991569;28;20045;-61
2021/10/14 00:52:58;;;;;;;3.40;1.40;;;;;;;20.62;47.34;102534.22;4991421;28;20085;-60
2021/10/14 00:55:33;;;;;;;3.40;1.50;;;;;;;20.62;47.08;102530.72;4992790;28;20023;-61
2021/10/14 00:57:59;;;;;;;3.38;1.25;;;;;;;20.61;47.21;102521.91;4994747;28;20034;-61
2021/10/14 01:00:24;;;;;;;4.05;1.80;;;;;;;20.60;47.12;102519.34;4995496;28;20130;-61
2021/10/14 01:02:50;;;;;;;3.25;1.45;;;;;;;20.59;47.45;102510.56;4994708;28;20038;-61
2021/10/14 01:05:15;;;;;;;3.45;1.50;;;;;;;20.57;47.22;102511.63;4995000;28;20100;-61
2021/10/14 01:07:41;;;;;;;3.42;1.38;;;;;;;20.56;47.46;102505.47;4995541;28;20113;-61
2021/10/14 01:10:06;;;;;;;3.45;1.60;;;;;;;20.56;47.42;102502.81;4994435;28;20034;-61
2021/10/14 01:12:33;;;;;;;4.13;1.63;;;;;;;20.56;47.31;102502.81;4995217;28;20018;-61
2021/10/14 01:14:58;;;;;;;3.50;1.42;;;;;;;20.55;47.41;102489.69;4994886;28;20057;-62
2021/10/14 01:17:24;;;;;;;2.85;1.42;;;;;;;20.53;47.22;102494.25;4994393;28;20031;-61
2021/10/14 01:19:49;;;;;;;3.78;1.50;;;;;;;20.51;47.51;102499.63;4995204;28;20463;-61
2021/10/14 01:22:14;;;;;;;3.47;1.50;;;;;;;20.52;47.30;102495.19;4994780;28;20173;-61
2021/10/14 01:24:40;;;;;;;3.50;1.60;;;;;;;20.50;47.52;102484.69;4993971;28;20287;-62
2021/10/14 01:27:08;;;;;;;3.10;1.52;;;;;;;20.48;47.68;102495.38;4994372;28;20033;-61
2021/10/14 01:29:34;;;;;;;3.20;1.65;;;;;;;20.46;47.55;102494.63;4994796;28;20398;-61
2021/10/14 01:32:01;;;;;;;4.25;1.83;;;;;;;20.45;47.59;102490.28;4993436;28;20053;-60
2021/10/14 01:34:26;;;;;;;4.05;1.88;;;;;;;20.46;47.39;102499.09;4995174;28;20130;-61
2021/10/14 01:36:51;;;;;;;3.25;1.73;;;;;;;20.46;47.56;102496.44;4995304;28;20030;-61
2021/10/14 01:39:17;;;;;;;4.00;1.75;;;;;;;20.44;47.68;102487.72;4994226;28;20022;-61
2021/10/14 01:41:44;;;;;;;4.47;1.90;;;;;;;20.45;47.60;102484.16;4995027;28;20106;-61
2021/10/14 01:44:10;;;;;;;3.85;1.85;;;;;;;20.43;47.63;102483.41;4994696;28;20034;-60
2021/10/14 01:46:39;;;;;;;3.60;1.67;;;;;;;20.44;47.35;102485.09;4993872;28;20034;-61
2021/10/14 01:49:04;;;;;;;3.67;1.65;;;;;;;20.43;47.64;102480.75;4994756;28;20045;-61
2021/10/14 01:51:30;;;;;;;3.30;1.58;;;;;;;20.43;47.46;102481.59;4994801;28;20022;-60
2021/10/14 01:53:58;;;;;;;3.22;1.55;;;;;;;20.42;47.54;102487.00;4993940;28;20097;-61
2021/10/14 01:56:23;;;;;;;4.00;1.90;;;;;;;20.42;47.36;102474.59;4994777;28;20019;-61
2021/10/14 01:58:51;;;;;;;3.35;1.50;;;;;;;20.43;47.55;102488.69;4994614;28;20038;-61
2021/10/14 02:01:19;;;;;;;3.53;1.70;;;;;;;20.43;47.61;102486.06;4993727;28;20041;-61
2021/10/14 02:03:44;;;;;;;4.13;1.80;;;;;;;20.42;47.31;102474.59;4994836;28;20135;-61
2021/10/14 02:06:10;;;;;;;4.13;2.00;;;;;;;20.42;47.29;102477.25;4993512;28;20034;-60
2021/10/14 02:08:35;;;;;;;4.70;1.90;;;;;;;20.41;47.42;102475.56;4993793;28;20276;-61
2021/10/14 02:11:00;;;;;;;3.58;1.65;;;;;;;20.42;47.50;102479.03;4994346;28;20283;-61
2021/10/14 02:13:28;;;;;;;3.30;1.60;;;;;;;20.41;47.50;102477.34;4993727;28;20064;-61
2021/10/14 02:15:54;;;;;;;3.63;1.70;;;;;;;20.39;47.53;102479.25;4994618;28;20367;-61
2021/10/14 02:18:19;;;;;;;4.57;1.50;;;;;;;20.39;47.58;102472.13;4994023;28;20437;-61
2021/10/14 02:20:47;;;;;;;3.80;1.80;;;;;;;20.39;47.71;102472.13;4993777;28;20549;-61
2021/10/14 02:23:12;;;;;;;4.25;1.88;;;;;;;20.39;47.75;102463.34;4993996;28;20026;-61
2021/10/14 02:25:41;;;;;;;4.00;1.97;;;;;;;20.38;47.31;102462.53;4994119;28;20134;-60
2021/10/14 02:28:06;;;;;;;4.32;1.90;;;;;;;20.37;47.50;102458.16;4992999;28;20334;-61
2021/10/14 02:30:32;;;;;;;3.60;1.73;;;;;;;20.38;47.33;102459.03;4994235;28;20026;-61
2021/10/14 02:32:58;;;;;;;3.10;1.60;;;;;;;20.36;47.36;102459.13;4993664;28;20470;-61
2021/10/14 02:35:25;;;;;;;3.38;1.50;;;;;;;20.36;47.71;102464.44;4993462;28;20040;-61
2021/10/14 02:37:51;;;;;;;3.70;1.75;;;;;;;20.36;47.45;102463.56;4993982;28;20454;-61
2021/10/14 02:40:16;;;;;;;3.80;1.77;;;;;;;20.36;47.37;102464.44;4993570;28;20042;-61
2021/10/14 02:42:41;;;;;;;4.67;1.77;;;;;;;20.35;47.37;102460.06;4993112;28;20295;-61
2021/10/14 02:45:07;;;;;;;4.37;1.80;;;;;;;20.34;47.43;102458.34;4993569;28;20650;-61
2021/10/14 02:47:32;;;;;;;5.55;2.00;;;;;;;20.33;47.35;102456.69;4993828;28;20497;-61
2021/10/14 02:49:57;;;;;;;4.43;1.87;;;;;;;20.33;47.64;102456.69;4992777;28;20474;-61
2021/10/14 02:52:23;;;;;;;3.40;1.70;;;;;;;20.33;47.79;102455.81;4994100;28;20298;-61
2021/10/14 02:54:48;;;;;;;6.57;1.92;;;;;;;20.30;47.48;102452.44;4993465;28;20419;-62
2021/10/14 02:57:13;;;;;;;4.28;2.00;;;;;;;20.30;47.78;102449.78;4992587;28;20389;-61
2021/10/14 02:59:38;;;;;;;3.75;1.80;;;;;;;20.29;47.53;102449.88;4993766;28;20457;-61
2021/10/14 03:02:04;;;;;;;3.50;1.60;;;;;;;20.30;47.67;102447.13;4993351;28;20033;-61
2021/10/14 03:04:29;;;;;;;3.53;1.70;;;;;;;20.28;47.69;102454.34;4992909;28;20038;-62
2021/10/14 03:06:54;;;;;;;4.03;1.97;;;;;;;20.28;47.45;102449.03;4993406;28;20378;-59
2021/10/14 03:09:19;;;;;;;4.07;1.90;;;;;;;20.28;47.46;102456.97;4992310;28;20272;-61
2021/10/14 03:11:48;;;;;;;3.70;1.70;;;;;;;20.29;47.72;102456.00;4993258;28;20062;-61
2021/10/14 03:14:13;;;;;;;4.20;1.80;;;;;;;20.30;47.75;102456.88;4992906;28;20288;-61
2021/10/14 03:16:38;;;;;;;4.43;1.70;;;;;;;20.29;47.76;102456.00;4992612;28;20093;-61
2021/10/14 03:19:03;;;;;;;4.03;1.60;;;;;;;20.27;47.67;102454.44;4992736;28;20342;-61
2021/10/14 03:21:29;;;;;;;4.73;1.97;;;;;;;20.27;47.71;102454.44;4993356;28;20291;-62
2021/10/14 03:23:54;;;;;;;3.75;1.80;;;;;;;20.26;47.45;102453.56;4992486;28;20363;-61
2021/10/14 03:26:19;;;;;;;3.97;1.90;;;;;;;20.27;47.60;102454.44;4992574;28;20133;-61
2021/10/14 03:28:50;;;;;;;3.78;1.85;;;;;;;20.26;47.60;102448.25;4992950;28;20029;-61
2021/10/14 03:31:15;;;;;;;3.75;1.80;;;;;;;20.26;47.56;102447.44;4991920;28;20424;-61
2021/10/14 03:33:40;;;;;;;4.50;2.10;;;;;;;20.24;47.57;102450.19;4993045;28;20069;-61
2021/10/14 03:36:08;;;;;;;3.90;2.03;;;;;;;20.24;47.71;102455.47;4992809;28;20827;-61
2021/10/14 03:38:34;;;;;;;3.88;1.90;;;;;;;20.23;47.66;102450.28;4992258;28;20363;-61
2021/10/14 03:40:59;;;;;;;4.88;2.20;;;;;;;20.22;47.89;102444.13;4992638;28;20117;-61
2021/10/14 03:43:24;;;;;;;4.20;1.90;;;;;;;20.23;47.42;102444.97;4993914;28;20053;-60
2021/10/14 03:45:49;;;;;;;4.63;2.03;;;;;;;20.22;47.75;102449.44;4992161;28;20797;-61
2021/10/14 03:48:15;;;;;;;4.20;1.98;;;;;;;20.20;47.56;102448.69;4992367;28;20280;-61
2021/10/14 03:50:40;;;;;;;4.22;2.10;;;;;;;20.21;47.53;102444.25;4992819;28;20105;-61
2021/10/14 03:53:06;;;;;;;5.03;2.47;;;;;;;20.20;47.61;102446.03;4991566;28;20145;-62
2021/10/14 03:55:31;;;;;;;4.10;2.08;;;;;;;20.18;47.88;102450.56;4992721;28;20623;-60
2021/10/14 03:57:56;;;;;;;4.65;2.15;;;;;;;20.18;47.76;102449.72;4992089;28;20078;-61
2021/10/14 04:00:22;;;;;;;3.65;2.00;;;;;;;20.16;47.83;102447.19;4992189;28;20058;-61
2021/10/14 04:02:47;;;;;;;4.32;2.20;;;;;;;20.16;47.63;102447.19;4992920;28;20065;-60
2021/10/14 04:05:13;;;;;;;4.75;2.17;;;;;;;20.15;47.72;102458.72;4992470;28;20126;-61
2021/10/14 04:07:38;;;;;;;4.03;1.80;;;;;;;20.14;47.67;102446.44;4992119;28;20053;-61
2021/10/14 04:10:05;;;;;;;4.25;2.13;;;;;;;20.13;47.62;102455.31;4992406;28;20427;-62
2021/10/14 04:12:30;;;;;;;4.55;2.22;;;;;;;20.13;47.87;102446.53;4992437;28;20034;-61
2021/10/14 04:14:55;;;;;;;4.80;2.20;;;;;;;20.12;47.79;102448.31;4992572;28;20459;-61
2021/10/14 04:17:20;;;;;;;4.30;1.93;;;;;;;20.14;47.98;102450.88;4992696;28;20465;-61
2021/10/14 04:19:46;;;;;;;4.85;2.10;;;;;;;20.13;47.96;102446.53;4991884;28;20298;-61
2021/10/14 04:22:11;;;;;;;3.90;2.17;;;;;;;20.13;47.95;102449.19;4992312;28;20031;-61
2021/10/14 04:24:38;;;;;;;4.90;1.98;;;;;;;20.14;47.80;102446.44;4992632;28;20765;-61
2021/10/14 04:27:04;;;;;;;4.90;2.20;;;;;;;20.12;47.79;102440.38;4991511;28;20076;-61
2021/10/14 04:29:30;;;;;;;3.65;1.80;;;;;;;20.11;47.62;102447.47;4992781;28;20050;-61
2021/10/14 04:31:55;;;;;;;3.50;1.85;;;;;;;20.09;48.06;102441.44;4995675;28;20129;-61
2021/10/14 04:34:21;;;;;;;3.65;1.92;;;;;;;20.11;47.86;102438.69;4995850;28;20022;-62
2021/10/14 04:36:46;;;;;;;4.13;1.98;;;;;;;20.10;47.83;102439.63;4996898;28;20026;-62
2021/10/14 04:39:15;;;;;;;5.80;2.33;;;;;;;20.09;47.88;102436.16;4996296;28;20088;-61
2021/10/14 04:41:43;;;;;;;4.53;2.30;;;;;;;20.09;47.65;102428.22;4995583;28;20433;-62
2021/10/14 04:44:08;;;;;;;4.43;2.13;;;;;;;20.08;47.76;102438.88;4996573;28;20033;-61
2021/10/14 04:46:45;;;;;;;4.47;2.00;;;;;;;20.07;47.83;102431.88;4997661;28;20390;-62
2021/10/14 04:49:10;;;;;;;3.90;1.80;;;;;;;20.06;47.87;102433.69;4995594;28;20057;-60
2021/10/14 04:51:36;;;;;;;4.17;2.07;;;;;;;20.07;47.64;102438.03;4996198;28;20611;-61
2021/10/14 04:54:01;;;;;;;4.80;2.27;;;;;;;20.07;47.91;102430.09;4995579;28;20280;-62
2021/10/14 04:56:26;;;;;;;3.50;1.97;;;;;;;20.07;47.85;102431.88;4995269;28;20366;-60
2021/10/14 04:58:52;;;;;;;5.07;2.40;;;;;;;20.07;48.04;102421.31;4996027;28;20290;-62
2021/10/14 05:01:18;;;;;;;4.27;2.30;;;;;;;20.06;47.66;102424.88;4995577;28;20022;-61
2021/10/14 05:03:43;;;;;;;3.90;2.07;;;;;;;20.06;47.93;102431.06;4994943;28;20371;-61
2021/10/14 05:06:11;;;;;;;5.20;1.88;;;;;;;20.07;47.82;102429.25;4995136;28;20121;-60
2021/10/14 05:08:36;;;;;;;3.55;1.70;;;;;;;20.08;47.64;102431.78;4995467;28;20034;-60
2021/10/14 05:11:02;;;;;;;4.70;2.30;;;;;;;20.08;47.80;102428.31;4994636;28;20359;-61
2021/10/14 05:13:30;;;;;;;4.32;2.08;;;;;;;20.06;47.69;102425.75;4995657;28;20284;-61
2021/10/14 05:15:55;;;;;;;5.93;2.30;;;;;;;20.06;47.64;102430.19;4994684;28;20023;-62
2021/10/14 05:18:20;;;;;;;4.03;1.90;;;;;;;20.05;47.93;102423.22;4995086;28;20037;-61
2021/10/14 05:20:55;;;;;;;3.30;1.70;;;;;;;20.03;47.73;102420.66;4995237;28;20057;-61
2021/10/14 05:23:20;;;;;;;;;;;;;;;20.05;47.98;102428.50;4994737;28;20271;-61
2021/10/14 05:25:45;;;;;;;4.40;2.00;;;;;;;20.06;47.83;102423.13;4995310;28;19914;-61
2021/10/14 05:28:10;;;;;;;4.10;1.92;;;;;;;20.09;47.84;102422.91;4994788;28;20117;-61
2021/10/14 05:30:35;;;;;;;2.80;1.43;;;;;;;20.18;48.33;102429.41;4994556;28;20117;-61
2021/10/14 05:33:01;;;;;;;3.42;1.48;;;;;;;20.29;48.18;102418.94;4994868;28;20106;-61
2021/10/14 05:35:26;;;;;;;3.47;1.27;;;;;;;20.41;48.28;102422.59;4995078;28;20023;-61
2021/10/14 05:37:51;;;;;;;4.60;1.90;;;;;;;20.50;48.03;102425.59;4994056;28;20382;-61
2021/10/14 05:40:17;;;;;;;4.27;1.50;;;;;;;20.55;47.75;102419.00;4994530;28;20171;-62
2021/10/14 05:42:42;;;;;;;3.33;1.40;;;;;;;20.63;47.69;102419.38;4994288;28;20362;-62
2021/10/14 05:45:07;;;;;;;4.68;2.13;;;;;;;20.72;47.10;102417.91;4993522;28;20133;-60
2021/10/14 05:47:33;;;;;;;4.20;1.95;;;;;;;20.80;47.27;102420.88;4994668;28;20038;-61
2021/10/14 05:49:59;;;;;;;3.05;1.30;;;;;;;20.87;47.22;102421.34;4994252;28;20022;-64
2021/10/14 05:52:25;;;;;;;3.53;1.30;;;;;;;20.92;46.85;102421.88;4993704;28;20030;-64
2021/10/14 05:54:50;;;;;;;2.85;1.13;;;;;;;20.96;46.96;102419.84;4994202;28;20133;-63
2021/10/14 05:57:15;;;;;;;4.28;1.50;;;;;;;21.00;46.96;102424.84;4994139;28;20046;-62
2021/10/14 05:59:41;;;;;;;3.08;1.50;;;;;;;21.02;46.76;102425.56;4993753;28;20026;-63
2021/10/14 06:02:06;;;;;;;2.97;1.27;;;;;;;21.06;46.87;102422.72;4994168;28;20502;-62
2021/10/14 06:04:37;;;;;;;3.13;1.30;;;;;;;21.08;46.94;102419.00;4994874;28;20382;-61
2021/10/14 06:07:03;;;;;;;3.90;1.92;;;;;;;21.08;46.93;102426.09;4993281;28;20486;-65
2021/10/14 06:09:28;;;;;;;4.22;1.52;;;;;;;21.07;46.88;102425.25;4994055;28;20108;-65
2021/10/14 06:11:53;;;;;;;3.22;1.50;;;;;;;21.09;47.13;102427.81;4994224;28;20031;-64
2021/10/14 06:14:19;;;;;;;3.53;1.50;;;;;;;21.10;47.12;102426.84;4993271;28;20054;-65
2021/10/14 06:16:44;;;;;;;2.97;1.40;;;;;;;21.11;47.32;102425.88;4994439;28;20717;-65
2021/10/14 06:19:09;;;;;;;3.55;1.40;;;;;;;21.11;47.08;102423.22;4993406;28;20026;-64
2021/10/14 06:21:35;;;;;;;3.22;1.38;;;;;;;21.13;47.18;102418.69;4994170;28;20371;-65
2021/10/14 06:24:00;;;;;;;4.00;1.45;;;;;;;21.15;47.09;102417.63;4994194;28;20041;-62
2021/10/14 06:26:27;;;;;;;3.05;1.40;;;;;;;21.15;47.19;102422.09;4993538;28;20090;-65
2021/10/14 06:28:53;;;;;;;3.97;1.25;;;;;;;21.12;47.37;102417.81;4994269;28;20018;-65
2021/10/14 06:31:19;;;;;;;3.50;1.60;;;;;;;21.12;47.56;102417.00;4993728;28;20038;-64
2021/10/14 06:33:47;;;;;;;2.75;1.30;;;;;;;21.14;47.39;102407.13;4993549;28;20334;-63
2021/10/14 06:36:12;;;;;;;3.75;1.70;;;;;;;21.18;47.43;102411.25;4993605;28;20034;-63
2021/10/14 06:38:40;;;;;;;3.25;1.30;;;;;;;21.22;47.26;102411.88;4994154;28;20344;-63
2021/10/14 06:41:06;;;;;;;4.03;1.58;;;;;;;21.24;47.40;102409.97;4993082;28;20030;-62
2021/10/14 06:43:31;;;;;;;5.20;1.60;;;;;;;21.32;47.19;102410.31;4993923;28;20031;-64
2021/10/14 06:45:56;;;;;;;3.65;1.45;;;;;;;21.38;46.96;102410.72;4993543;28;20038;-59
2021/10/14 06:48:21;;;;;;;4.13;1.98;;;;;;;21.41;46.67;102408.78;4993247;28;20022;-62
2021/10/14 06:50:47;;;;;;;5.35;2.60;;;;;;;21.41;47.15;102408.78;4994160;28;20490;-60
2021/10/14 06:53:13;;;;;;;6.32;3.05;;;;;;;21.35;45.90;102412.75;4992978;28;20042;-64
2021/10/14 06:55:40;;;;;;;6.53;2.80;;;;;;;21.33;46.18;102404.91;4992957;28;20482;-63
2021/10/14 06:58:05;;;;;;;5.78;2.45;;;;;;;21.36;46.66;102404.69;4993432;28;20030;-63
2021/10/14 07:00:31;;;;;;;8.70;2.10;;;;;;;21.40;46.65;102409.78;4993576;28;20517;-63
2021/10/14 07:03:06;;;;;;;4.10;1.90;;;;;;;21.43;46.84;102409.53;4992423;28;20343;-62
2021/10/14 07:05:32;;;;;;;4.53;1.70;;;;;;;21.44;46.78;102411.22;4993428;28;20382;-62
2021/10/14 07:07:57;;;;;;;4.75;1.52;;;;;;;21.41;47.16;102404.31;4993279;28;20026;-62
2021/10/14 07:10:23;;;;;;;3.77;1.80;;;;;;;21.42;46.61;102408.69;4992764;28;20049;-61
2021/10/14 07:12:48;;;;;;;4.45;1.63;;;;;;;21.44;46.88;102414.72;4993329;28;20782;-61
2021/10/14 07:15:14;;;;;;;3.60;1.70;;;;;;;21.47;46.99;102416.31;4992926;28;20109;-62
2021/10/14 07:17:39;;;;;;;5.65;2.33;;;;;;;21.43;46.93;102406.88;4992474;28;20493;-62
2021/10/14 07:20:06;;;;;;;5.73;1.70;;;;;;;21.47;47.07;102411.00;4993282;28;20030;-65
2021/10/14 07:22:31;;;;;;;3.75;1.63;;;;;;;21.52;47.00;102415.09;4992568;28;20272;-63
2021/10/14 07:24:57;;;;;;;4.43;1.70;;;;;;;21.55;46.92;102412.22;4993072;28;20037;-64
2021/10/14 07:27:22;;;;;;;6.50;1.75;;;;;;;21.58;46.85;102405.81;4993464;28;20030;-62
2021/10/14 07:29:47;;;;;;;3.90;1.40;;;;;;;21.60;46.90;102411.84;4992594;28;20080;-63
2021/10/14 07:32:13;;;;;;;4.73;1.90;;;;;;;21.61;46.75;102410.91;4992765;28;20121;-64
2021/10/14 07:34:38;;;;;;;4.10;1.42;;;;;;;21.62;46.75;102406.44;4993388;28;20288;-62
2021/10/14 07:37:05;;;;;;;4.88;1.30;;;;;;;21.64;46.84;102416.00;4992173;28;20478;-62
2021/10/14 07:39:30;;;;;;;3.88;1.45;;;;;;;21.63;47.08;102418.75;4993277;28;20026;-62
2021/10/14 07:41:56;;;;;;;6.50;1.90;;;;;;;21.61;46.97;102424.16;4992986;28;20505;-63
2021/10/14 07:44:21;;;;;;;5.10;1.90;;;;;;;21.58;47.14;102428.84;4992182;28;20035;-62
2021/10/14 07:46:47;;;;;;;2.73;1.23;;;;;;;21.59;47.34;102423.44;4992840;28;20685;-61
2021/10/14 07:49:14;;;;;;;3.30;1.35;;;;;;;21.63;47.14;102432.03;4992822;28;20283;-61
2021/10/14 07:51:40;;;;;;;3.72;1.60;;;;;;;21.63;46.98;102427.56;4992360;28;20038;-60
2021/10/14 07:54:05;;;;;;;3.45;1.38;;;;;;;21.63;47.11;102426.72;4992671;28;20046;-62
2021/10/14 07:56:31;;;;;;;5.63;1.52;;;;;;;21.63;47.22;102424.06;4993051;28;20030;-63
2021/10/14 07:58:57;;;;;;;3.83;1.48;;;;;;;21.62;47.24;102423.22;4991957;28;20089;-62
2021/10/14 08:01:25;;;;;;;3.65;1.60;;;;;;;21.64;47.33;102426.59;4992921;28;20544;-61
2021/10/14 08:03:50;;;;;;;4.30;1.40;;;;;;;21.60;47.39;102426.94;4993306;28;20039;-63
2021/10/14 08:06:15;;;;;;;5.57;2.00;;;;;;;21.52;47.57;102430.13;4995741;28;20033;-61
2021/10/14 08:08:41;;;;;;;5.93;1.65;;;;;;;21.47;47.85;102427.75;4997130;28;20029;-63
2021/10/14 08:11:08;;;;;;;7.68;2.03;;;;;;;21.44;48.03;102432.44;4998293;28;20027;-64
2021/10/14 08:13:34;;;;;;;6.10;2.28;;;;;;;21.41;48.16;102433.50;4996584;28;20045;-64
2021/10/14 08:16:00;;;;;;;7.22;2.25;;;;;;;21.45;48.42;102429.69;4996721;28;20077;-66
2021/10/14 08:18:26;;;;;;;4.97;1.88;;;;;;;21.50;48.12;102427.59;4998174;28;20061;-66
2021/10/14 08:20:57;;;;;;;5.55;1.95;;;;;;;21.54;48.14;102414.97;4996600;28;20054;-67
2021/10/14 08:23:23;;;;;;;4.28;1.80;;;;;;;21.61;48.04;102426.00;4997021;28;20022;-68
2021/10/14 08:25:54;;;;;;;5.30;2.00;;;;;;;21.66;47.83;102429.16;4995838;28;20030;-68
2021/10/14 08:28:24;;;;;;;5.45;2.00;;;;;;;21.69;47.83;102419.16;4996463;28;20044;-66
2021/10/14 08:30:50;;;;;;;4.80;2.17;;;;;;;21.73;47.57;102428.59;4996348;28;20053;-66
2021/10/14 08:33:16;;;;;;;7.55;1.90;;;;;;;21.77;47.94;102425.72;4995350;28;20054;-66
2021/10/14 08:35:42;;;;;;;5.55;1.77;;;;;;;21.79;47.95;102422.00;4996560;28;20030;-67
2021/10/14 08:38:15;;;;;;;6.07;1.95;;;;;;;21.83;47.78;102419.97;5000016;28;20045;-66
2021/10/14 08:40:41;;;;;;;6.25;1.90;;;;;;;21.86;47.67;102417.94;4999165;28;20085;-66
2021/10/14 08:43:13;;;;;;;6.63;2.10;;;;;;;21.88;47.50;102418.69;4995946;28;20054;-68
2021/10/14 08:45:43;;;;;;;3.47;1.60;;;;;;;21.85;47.62;102418.91;4996484;28;20033;-69
2021/10/14 08:48:09;;;;;;;6.25;1.90;;;;;;;21.84;47.56;102421.66;4998319;28;20080;-65
2021/10/14 08:50:37;;;;;;;6.68;1.90;;;;;;;21.84;47.62;102419.88;4998883;28;20038;-67
2021/10/14 08:53:03;;;;;;;6.47;2.08;;;;;;;21.87;47.62;102417.00;4998866;28;20030;-67
2021/10/14 08:55:30;;;;;;;5.25;1.70;;;;;;;21.90;47.65;102415.91;4998871;28;20101;-66
2021/10/14 08:57:58;;;;;;;4.30;1.92;;;;;;;21.91;47.61;102421.09;4997953;28;20030;-63
2021/10/14 09:00:23;;;;;;;6.43;1.80;;;;;;;21.95;47.42;102415.56;4997806;28;20045;-64
2021/10/14 09:02:52;;;;;;;4.03;1.63;;;;;;;21.95;47.39;102420.88;4997374;28;20026;-67
2021/10/14 09:05:17;;;;;;;4.60;1.73;;;;;;;21.95;47.43;102428.84;4998234;28;20421;-71
2021/10/14 09:07:47;;;;;;;4.53;1.90;;;;;;;21.92;47.39;102421.94;4996970;28;20029;-66
2021/10/14 09:10:13;;;;;;;3.70;1.67;;;;;;;21.92;47.71;102424.59;4998712;28;20041;-66
2021/10/14 09:12:47;;;;;;;4.38;2.00;;;;;;;21.89;47.87;102425.69;4998339;28;20097;-64
2021/10/14 09:15:14;;;;;;;4.38;1.90;;;;;;;21.87;47.75;102430.28;4996250;28;20418;-64
2021/10/14 09:17:44;;;;;;;7.10;1.92;;;;;;;21.87;47.92;102424.09;4997243;28;20038;-64
2021/10/14 09:20:30;;;;;;;3.47;1.75;;;;;;;21.85;47.88;102415.41;4997714;28;20040;-63
2021/10/14 09:22:59;;;;;;;6.28;2.00;;;;;;;21.86;47.53;102423.25;4995490;28;20386;-63
2021/10/14 09:25:37;;;;;;;6.57;2.10;;;;;;;21.87;47.35;102422.31;4996512;28;20070;-63
2021/10/14 09:28:12;;;;;;;6.25;2.30;;;;;;;21.90;47.47;102423.88;4996977;28;20073;-63
2021/10/14 09:30:43;;;;;;;;;;;;;;;21.95;47.43;102418.22;4997460;28;20030;-64
2021/10/14 09:33:46;;;;;;;6.45;1.80;;;;;;;21.94;47.23;102420.06;4995241;28;19921;-63
2021/10/14 09:36:23;;;;;;;4.85;2.00;;;;;;;21.87;47.01;102409.03;4994269;28;20066;-65
2021/10/14 09:38:52;;;;;;;5.05;1.92;;;;;;;21.84;47.40;102406.59;4995737;28;20042;-63
2021/10/14 09:41:20;;;;;;;6.88;2.75;;;;;;;21.82;47.33;102405.84;4994811;28;20038;-63
2021/10/14 09:43:52;;;;;;;4.78;2.42;;;;;;;21.82;47.46;102402.34;4994686;28;20044;-64
2021/10/14 09:47:00;;;;;;;4.13;2.13;;;;;;;21.83;47.42;102401.41;4994695;28;20485;-64
2021/10/14 09:49:31;;;;;;;4.13;1.90;;;;;;;21.86;47.35;102395.88;4995115;28;20363;-64
2021/10/14 09:52:00;;;;;;;5.50;1.80;;;;;;;21.85;47.18;102391.53;4994044;28;20038;-63
2021/10/14 09:54:27;;;;;;;6.75;2.13;;;;;;;21.87;47.17;102381.63;4994957;28;20062;-63
2021/10/14 09:56:53;;;;;;;4.30;2.17;;;;;;;21.85;47.25;102379.09;4995000;28;20113;-64
2021/10/14 09:59:18;;;;;;;6.03;2.13;;;;;;;21.87;47.08;102378.97;4995254;28;20058;-63
2021/10/14 10:01:43;;;;;;;4.38;1.83;;;;;;;21.86;47.22;102377.31;4995415;28;20058;-64
2021/10/14 10:04:09;;;;;;;4.57;2.15;;;;;;;21.83;47.29;102378.38;4995786;28;20038;-64
2021/10/14 10:06:36;;;;;;;4.60;1.83;;;;;;;21.83;47.30;102375.72;4994190;28;20490;-64
2021/10/14 10:09:06;;;;;;;3.95;2.00;;;;;;;21.83;47.24;102377.53;4994762;28;20026;-67
2021/10/14 10:11:37;;;;;;;6.57;2.45;;;;;;;21.79;47.61;102373.38;4994570;28;20541;-66
2021/10/14 10:14:04;;;;;;;6.70;2.63;;;;;;;21.72;47.84;102373.00;4994964;28;20037;-65
2021/10/14 10:16:29;;;;;;;4.00;1.92;;;;;;;21.70;47.69;102377.56;4994690;28;20029;-66
2021/10/14 10:19:02;;;;;;;5.65;2.40;;;;;;;21.65;47.90;102374.38;4993716;28;20112;-71
2021/10/14 10:21:30;;;;;;;4.38;2.15;;;;;;;21.63;47.75;102384.28;4994738;28;20050;-64
2021/10/14 10:24:27;;;;;;;3.85;1.75;;;;;;;21.61;47.93;102379.06;4994678;28;20428;-63
2021/10/14 10:26:54;;;;;;;6.00;2.08;;;;;;;21.60;48.09;102377.38;4993504;28;20038;-63
2021/10/14 10:29:19;;;;;;;4.65;2.17;;;;;;;21.59;48.32;102380.13;4992966;28;20026;-64
2021/10/14 10:31:55;;;;;;;5.30;2.40;;;;;;;21.56;48.22;102384.72;4994769;28;20022;-66
2021/10/14 10:34:42;;;;;;;5.53;2.90;;;;;;;21.54;48.46;102383.97;4993618;28;20026;-65
2021/10/14 10:37:44;;;;;;;8.68;6.10;;;;;;;21.53;48.82;102379.63;4994386;28;20046;-65
2021/10/14 10:40:22;;;;;;;10.07;6.90;;;;;;;21.54;48.82;102380.50;4993588;28;20038;-66
2021/10/14 10:42:56;;;;;;;11.15;8.15;;;;;;;21.55;49.01;102374.19;4994434;28;20097;-66
2021/10/14 10:45:41;;;;;;;11.93;9.48;;;;;;;21.57;49.05;102367.00;4994471;28;20093;-66
2021/10/14 10:48:07;;;;;;;13.07;10.60;;;;;;;21.58;49.38;102370.50;4992985;28;20026;-65
2021/10/14 10:50:32;;;;;;;14.68;11.07;;;;;;;21.61;49.42;102380.88;4994231;28;20065;-65
2021/10/14 10:53:05;;;;;;;14.30;11.00;;;;;;;21.61;49.39;102365.81;4993796;28;20034;-66
2021/10/14 10:55:31;;;;;;;14.00;12.10;;;;;;;21.62;49.56;102370.16;4993192;28;20462;-64
2021/10/14 10:57:56;;;;;;;13.97;11.80;;;;;;;21.63;49.71;102363.88;4993579;28;20037;-66
2021/10/14 11:00:23;;;;;;;14.35;11.70;;;;;;;21.64;49.54;102370.91;4993662;28;20076;-62
2021/10/14 11:03:21;;;;;;;13.63;11.80;;;;;;;21.61;49.71;102367.63;4992791;28;20114;-60
2021/10/14 11:05:52;;;;;;;17.65;12.65;;;;;;;21.56;49.95;102360.00;4993483;28;20114;-61
2021/10/14 11:08:23;;;;;;;17.27;12.82;;;;;;;21.52;49.98;102355.84;4992528;28;20108;-60
2021/10/14 11:10:55;;;;;;;17.67;11.93;;;;;;;21.48;50.07;102354.38;4993498;28;20042;-62
2021/10/14 11:13:22;;;;;;;14.63;12.00;;;;;;;21.44;50.02;102350.22;4993696;28;20466;-62
2021/10/14 11:15:55;;;;;;;15.00;10.70;;;;;;;21.42;50.32;102350.34;4992802;28;20018;-62
2021/10/14 11:18:23;;;;;;;19.37;11.00;;;;;;;21.40;50.23;102344.31;4993309;28;20474;-62
2021/10/14 11:20:53;;;;;;;13.73;10.32;;;;;;;21.39;50.19;102345.25;4993283;28;20026;-62
2021/10/14 11:23:19;;;;;;;16.40;10.38;;;;;;;21.38;50.44;102340.94;4992146;28;20041;-62
2021/10/14 11:25:59;;;;;;;14.77;9.70;;;;;;;21.35;50.26;102335.84;4993027;28;20549;-61